Startpagina
METAR-TAF:

METAR-TAF

Vliegvelden :

Aeropuerto Internacional de Maiquetía Simón Bolívar

Caracas, Venezuela

breedte: 10-36N, lengte: 066-59W, hoogte: 43 m

Actueel weer

Dit bericht is 2 uur en het 3 minuten geleden gemaakt, om 06:00 UTC
Wind 2 kt uit het noordoosten
Temperatuur 22°C
Vochtigheid 88%
Druk 1013 hPa
Zicht 10 km of meer
Weinig wolken op 1600 ft

METAR: SVMI 160600Z 05002KT 9999 FEW016 22/20 Q1013

Tijdstip: 04:03 (08:03 UTC)

Verwachting

Dit bericht is 4 uur en het 3 minuten geleden gemaakt, om 04:00 UTC
Verwachting geldig van 16 om 06 UTC tot 17 om 06 UTC
Wind kt uit het noorden
Zicht 10 km of meer
Verspreide wolken op 1600 ft
Van 16 om 0600 UTC
Wind kt uit het noorden
Weinig wolken op 1600 ft
Wijzigt naar
van 16 om 07 UTC tot 16 om 10 UTC
Wind kt uit het noorden
Zicht 10 km of meer
geen wolken onder 1500 m en geen cumulonimbus

TAF: SVMI 160400Z 1606/1706 00000KT 9999 SCT016 TX33/18Z TN24/09Z FM160600 00000KT FEW016 BECMG 1607/1610 00000KT CAVOK

Waarnemingen en weersverwachtingen van meer dan 4000 vliegvelden (METAR en TAF).

De beschikbare stations zijn de gele en rode punten op de kaart.

Ga met uw muis naar het station om de naam te zien.

Klik dan om waarnemingen en weersverwachtingen te zien.

kaart wijzigen: klik op de groene knoppen met een zwart kruis om in te zoomen, op de groene knop met een streepje om uit te zoomen of op de groene pijlen voor aangrenzende kaarten.


METAR-TAF: